Startpagina
METAR-TAF:

METAR-TAF

Vliegvelden :

Dar es Salaam, Tanzania

Julius Nyerere International Airport

breedte: 06-52S, lengte: 039-12E, hoogte: 55 m

Actueel weer

Dit bericht is 5 uur en het 23 minuten geleden gemaakt, om 19:00 UTC
Weinig wind
Temperatuur 22°C
Vochtigheid 100%
Druk 1017 hPa
Zicht 10 km of meer
Weinig wolken op 1500 ft

METAR: HTDA 271900Z 00000KT 9999 FEW015 22/22 Q1017 NOSIG

Tijdstip: 03:23 (00:23 UTC)

Verwachting

Dit bericht is 7 uur en het 23 minuten geleden gemaakt, om 17:00 UTC
Verwachting geldig van 27 om 18 UTC tot 28 om 24 UTC
Wind 10 kt uit het zuidoosten
Zicht 10 km of meer
Weinig wolken op 1700 ft
Verspreide wolken op 7000 ft
Wijzigt naar
van 28 om 02 UTC tot 28 om 05 UTC
Wind 5 kt uit het zuidzuidwesten
Weinig wolken op 1500 ft
Wijzigt naar
van 28 om 09 UTC tot 28 om 12 UTC
Wind 10 kt uit het zuidzuidoosten
Gebroken wolken op 2400 ft

TAF: HTDA 271700Z 2718/2824 14010KT 9999 FEW017 SCT070 BECMG 2802/2805 20005KT FEW015 BECMG 2809/2812 15010KT BKN024

Waarnemingen en weersverwachtingen van meer dan 4000 vliegvelden (METAR en TAF).

De beschikbare stations zijn de gele en rode punten op de kaart.

Ga met uw muis naar het station om de naam te zien.

Klik dan om waarnemingen en weersverwachtingen te zien.

kaart wijzigen: klik op de groene knoppen met een zwart kruis om in te zoomen, op de groene knop met een streepje om uit te zoomen of op de groene pijlen voor aangrenzende kaarten.


METAR-TAF: